sensor_id;sensor_type;location;lat;lon;timestamp;P1;durP1;ratioP1;P2;durP2;ratioP2
39728;SDS011;25402;42.004;23.088;2022-07-01T00:00:00;5.57;;;3.60;;
39728;SDS011;25402;42.004;23.088;2022-07-01T00:02:26;7.18;;;3.90;;
39728;SDS011;25402;42.004;23.088;2022-07-01T00:04:53;8.68;;;4.03;;
39728;SDS011;25402;42.004;23.088;2022-07-01T00:07:19;8.90;;;4.40;;
39728;SDS011;25402;42.004;23.088;2022-07-01T00:09:46;4.65;;;3.95;;
39728;SDS011;25402;42.004;23.088;2022-07-01T00:12:12;6.90;;;4.13;;
39728;SDS011;25402;42.004;23.088;2022-07-01T00:14:39;7.70;;;3.75;;
39728;SDS011;25402;42.004;23.088;2022-07-01T00:17:06;8.43;;;3.60;;
39728;SDS011;25402;42.004;23.088;2022-07-01T00:19:32;6.53;;;3.65;;
39728;SDS011;25402;42.004;23.088;2022-07-01T00:21:58;7.47;;;3.90;;
39728;SDS011;25402;42.004;23.088;2022-07-01T00:24:25;13.75;;;4.25;;
39728;SDS011;25402;42.004;23.088;2022-07-01T00:26:53;5.90;;;4.78;;
39728;SDS011;25402;42.004;23.088;2022-07-01T00:29:20;6.60;;;5.00;;
39728;SDS011;25402;42.004;23.088;2022-07-01T00:31:46;7.10;;;4.65;;
39728;SDS011;25402;42.004;23.088;2022-07-01T00:34:13;5.25;;;4.03;;
39728;SDS011;25402;42.004;23.088;2022-07-01T00:36:39;12.43;;;4.18;;
39728;SDS011;25402;42.004;23.088;2022-07-01T00:39:06;7.15;;;4.03;;
39728;SDS011;25402;42.004;23.088;2022-07-01T00:41:32;6.93;;;4.60;;
39728;SDS011;25402;42.004;23.088;2022-07-01T00:43:59;6.18;;;5.25;;
39728;SDS011;25402;42.004;23.088;2022-07-01T00:46:26;5.75;;;4.60;;
39728;SDS011;25402;42.004;23.088;2022-07-01T00:48:55;9.88;;;4.50;;
39728;SDS011;25402;42.004;23.088;2022-07-01T00:51:22;8.77;;;5.30;;
39728;SDS011;25402;42.004;23.088;2022-07-01T00:53:49;9.77;;;5.03;;
39728;SDS011;25402;42.004;23.088;2022-07-01T00:56:15;12.68;;;4.20;;
39728;SDS011;25402;42.004;23.088;2022-07-01T00:58:42;8.23;;;4.35;;
39728;SDS011;25402;42.004;23.088;2022-07-01T01:01:10;7.85;;;4.45;;
39728;SDS011;25402;42.004;23.088;2022-07-01T01:03:36;7.00;;;5.20;;
39728;SDS011;25402;42.004;23.088;2022-07-01T01:06:03;7.75;;;5.07;;
39728;SDS011;25402;42.004;23.088;2022-07-01T01:08:29;8.70;;;5.38;;
39728;SDS011;25402;42.004;23.088;2022-07-01T01:10:56;10.73;;;5.15;;
39728;SDS011;25402;42.004;23.088;2022-07-01T01:13:23;12.00;;;5.10;;
39728;SDS011;25402;42.004;23.088;2022-07-01T01:15:49;8.57;;;4.97;;
39728;SDS011;25402;42.004;23.088;2022-07-01T01:18:16;9.15;;;4.97;;
39728;SDS011;25402;42.004;23.088;2022-07-01T01:20:43;7.18;;;4.50;;
39728;SDS011;25402;42.004;23.088;2022-07-01T01:23:10;8.88;;;4.47;;
39728;SDS011;25402;42.004;23.088;2022-07-01T01:25:36;7.00;;;5.00;;
39728;SDS011;25402;42.004;23.088;2022-07-01T01:28:03;6.25;;;4.82;;
39728;SDS011;25402;42.004;23.088;2022-07-01T01:30:29;7.75;;;4.70;;
39728;SDS011;25402;42.004;23.088;2022-07-01T01:32:56;9.27;;;4.75;;
39728;SDS011;25402;42.004;23.088;2022-07-01T01:35:23;8.07;;;4.75;;
39728;SDS011;25402;42.004;23.088;2022-07-01T01:37:50;10.85;;;4.72;;
39728;SDS011;25402;42.004;23.088;2022-07-01T01:40:17;7.07;;;4.57;;
39728;SDS011;25402;42.004;23.088;2022-07-01T01:42:44;8.63;;;4.47;;
39728;SDS011;25402;42.004;23.088;2022-07-01T01:45:10;8.45;;;5.70;;
39728;SDS011;25402;42.004;23.088;2022-07-01T01:47:37;10.65;;;5.10;;
39728;SDS011;25402;42.004;23.088;2022-07-01T01:50:04;13.27;;;5.20;;
39728;SDS011;25402;42.004;23.088;2022-07-01T01:52:32;11.60;;;5.00;;
39728;SDS011;25402;42.004;23.088;2022-07-01T01:54:59;8.90;;;5.20;;
39728;SDS011;25402;42.004;23.088;2022-07-01T01:57:26;9.70;;;5.15;;
39728;SDS011;25402;42.004;23.088;2022-07-01T01:59:53;8.73;;;5.38;;
39728;SDS011;25402;42.004;23.088;2022-07-01T02:02:19;10.63;;;5.20;;
39728;SDS011;25402;42.004;23.088;2022-07-01T02:04:45;9.43;;;4.60;;
39728;SDS011;25402;42.004;23.088;2022-07-01T02:07:12;12.02;;;5.22;;
39728;SDS011;25402;42.004;23.088;2022-07-01T02:09:38;10.13;;;4.80;;
39728;SDS011;25402;42.004;23.088;2022-07-01T02:12:05;5.88;;;4.47;;
39728;SDS011;25402;42.004;23.088;2022-07-01T02:14:32;11.27;;;5.38;;
39728;SDS011;25402;42.004;23.088;2022-07-01T02:16:58;11.23;;;4.80;;
39728;SDS011;25402;42.004;23.088;2022-07-01T02:19:25;8.82;;;5.38;;
39728;SDS011;25402;42.004;23.088;2022-07-01T02:21:51;8.35;;;4.93;;
39728;SDS011;25402;42.004;23.088;2022-07-01T02:24:18;19.58;;;4.88;;
39728;SDS011;25402;42.004;23.088;2022-07-01T02:26:45;8.00;;;4.88;;
39728;SDS011;25402;42.004;23.088;2022-07-01T02:29:12;9.40;;;5.20;;
39728;SDS011;25402;42.004;23.088;2022-07-01T02:31:38;7.88;;;5.30;;
39728;SDS011;25402;42.004;23.088;2022-07-01T02:34:05;13.40;;;5.07;;
39728;SDS011;25402;42.004;23.088;2022-07-01T02:36:31;20.48;;;5.28;;
39728;SDS011;25402;42.004;23.088;2022-07-01T02:38:57;23.45;;;6.40;;
39728;SDS011;25402;42.004;23.088;2022-07-01T02:41:24;65.80;;;7.28;;
39728;SDS011;25402;42.004;23.088;2022-07-01T02:43:50;73.05;;;9.02;;
39728;SDS011;25402;42.004;23.088;2022-07-01T02:46:17;32.55;;;6.55;;
39728;SDS011;25402;42.004;23.088;2022-07-01T02:48:43;35.38;;;7.78;;
39728;SDS011;25402;42.004;23.088;2022-07-01T02:51:10;24.83;;;7.88;;
39728;SDS011;25402;42.004;23.088;2022-07-01T02:53:36;20.58;;;7.55;;
39728;SDS011;25402;42.004;23.088;2022-07-01T02:56:02;16.85;;;7.90;;
39728;SDS011;25402;42.004;23.088;2022-07-01T02:58:29;24.40;;;10.60;;
39728;SDS011;25402;42.004;23.088;2022-07-01T03:00:56;32.13;;;9.05;;
39728;SDS011;25402;42.004;23.088;2022-07-01T03:03:22;25.20;;;7.13;;
39728;SDS011;25402;42.004;23.088;2022-07-01T03:05:49;29.30;;;6.75;;
39728;SDS011;25402;42.004;23.088;2022-07-01T03:08:16;23.67;;;5.47;;
39728;SDS011;25402;42.004;23.088;2022-07-01T03:10:42;14.15;;;5.72;;
39728;SDS011;25402;42.004;23.088;2022-07-01T03:13:09;17.88;;;6.03;;
39728;SDS011;25402;42.004;23.088;2022-07-01T03:15:35;14.75;;;5.38;;
39728;SDS011;25402;42.004;23.088;2022-07-01T03:18:01;21.52;;;5.05;;
39728;SDS011;25402;42.004;23.088;2022-07-01T03:20:28;27.00;;;5.70;;
39728;SDS011;25402;42.004;23.088;2022-07-01T03:22:55;13.60;;;5.15;;
39728;SDS011;25402;42.004;23.088;2022-07-01T03:25:21;13.05;;;5.93;;
39728;SDS011;25402;42.004;23.088;2022-07-01T03:27:48;17.50;;;6.30;;
39728;SDS011;25402;42.004;23.088;2022-07-01T03:30:14;24.13;;;5.82;;
39728;SDS011;25402;42.004;23.088;2022-07-01T03:32:43;27.02;;;6.28;;
39728;SDS011;25402;42.004;23.088;2022-07-01T03:35:09;11.65;;;5.38;;
39728;SDS011;25402;42.004;23.088;2022-07-01T03:37:54;16.88;;;6.93;;
39728;SDS011;25402;42.004;23.088;2022-07-01T03:40:21;14.90;;;6.85;;
39728;SDS011;25402;42.004;23.088;2022-07-01T03:42:47;22.27;;;7.00;;
39728;SDS011;25402;42.004;23.088;2022-07-01T03:45:14;14.55;;;6.40;;
39728;SDS011;25402;42.004;23.088;2022-07-01T03:47:44;15.98;;;6.22;;
39728;SDS011;25402;42.004;23.088;2022-07-01T03:50:11;16.40;;;5.80;;
39728;SDS011;25402;42.004;23.088;2022-07-01T03:52:38;15.70;;;5.68;;
39728;SDS011;25402;42.004;23.088;2022-07-01T03:55:07;9.75;;;5.82;;
39728;SDS011;25402;42.004;23.088;2022-07-01T03:57:33;13.15;;;5.43;;
39728;SDS011;25402;42.004;23.088;2022-07-01T04:00:00;15.10;;;5.18;;
39728;SDS011;25402;42.004;23.088;2022-07-01T04:02:26;16.88;;;4.82;;
39728;SDS011;25402;42.004;23.088;2022-07-01T04:04:52;31.83;;;5.40;;
39728;SDS011;25402;42.004;23.088;2022-07-01T04:07:20;18.48;;;5.60;;
39728;SDS011;25402;42.004;23.088;2022-07-01T04:09:47;25.80;;;4.60;;
39728;SDS011;25402;42.004;23.088;2022-07-01T04:12:15;22.10;;;5.47;;
39728;SDS011;25402;42.004;23.088;2022-07-01T04:14:41;17.65;;;5.28;;
39728;SDS011;25402;42.004;23.088;2022-07-01T04:17:08;13.15;;;4.68;;
39728;SDS011;25402;42.004;23.088;2022-07-01T04:19:34;10.93;;;4.38;;
39728;SDS011;25402;42.004;23.088;2022-07-01T04:22:01;11.35;;;4.50;;
39728;SDS011;25402;42.004;23.088;2022-07-01T04:24:45;23.83;;;9.52;;
39728;SDS011;25402;42.004;23.088;2022-07-01T04:27:12;11.32;;;4.45;;
39728;SDS011;25402;42.004;23.088;2022-07-01T04:29:39;23.13;;;5.28;;
39728;SDS011;25402;42.004;23.088;2022-07-01T04:32:06;10.23;;;5.53;;
39728;SDS011;25402;42.004;23.088;2022-07-01T04:34:32;15.18;;;6.45;;
39728;SDS011;25402;42.004;23.088;2022-07-01T04:36:59;34.55;;;8.45;;
39728;SDS011;25402;42.004;23.088;2022-07-01T04:39:25;30.73;;;11.80;;
39728;SDS011;25402;42.004;23.088;2022-07-01T04:41:51;23.15;;;12.85;;
39728;SDS011;25402;42.004;23.088;2022-07-01T04:44:27;17.45;;;6.82;;
39728;SDS011;25402;42.004;23.088;2022-07-01T04:46:55;12.82;;;4.28;;
39728;SDS011;25402;42.004;23.088;2022-07-01T04:49:22;28.33;;;10.85;;
39728;SDS011;25402;42.004;23.088;2022-07-01T04:51:49;65.88;;;11.52;;
39728;SDS011;25402;42.004;23.088;2022-07-01T04:54:16;33.63;;;9.95;;
39728;SDS011;25402;42.004;23.088;2022-07-01T04:56:44;19.15;;;10.75;;
39728;SDS011;25402;42.004;23.088;2022-07-01T04:59:11;25.23;;;6.18;;
39728;SDS011;25402;42.004;23.088;2022-07-01T05:01:38;75.25;;;8.10;;
39728;SDS011;25402;42.004;23.088;2022-07-01T05:04:05;27.52;;;6.65;;
39728;SDS011;25402;42.004;23.088;2022-07-01T05:06:31;8.57;;;4.65;;
39728;SDS011;25402;42.004;23.088;2022-07-01T05:08:59;42.35;;;5.53;;
39728;SDS011;25402;42.004;23.088;2022-07-01T05:11:25;15.75;;;4.07;;
39728;SDS011;25402;42.004;23.088;2022-07-01T05:13:52;11.15;;;3.42;;
39728;SDS011;25402;42.004;23.088;2022-07-01T05:16:18;54.03;;;6.18;;
39728;SDS011;25402;42.004;23.088;2022-07-01T05:18:45;22.60;;;4.07;;
39728;SDS011;25402;42.004;23.088;2022-07-01T05:21:30;8.95;;;3.88;;
39728;SDS011;25402;42.004;23.088;2022-07-01T05:24:15;18.33;;;4.50;;
39728;SDS011;25402;42.004;23.088;2022-07-01T05:26:41;17.80;;;4.65;;
39728;SDS011;25402;42.004;23.088;2022-07-01T05:29:08;10.68;;;4.13;;
39728;SDS011;25402;42.004;23.088;2022-07-01T05:31:34;8.57;;;4.07;;
39728;SDS011;25402;42.004;23.088;2022-07-01T05:34:01;17.02;;;4.55;;
39728;SDS011;25402;42.004;23.088;2022-07-01T05:36:28;17.73;;;4.78;;
39728;SDS011;25402;42.004;23.088;2022-07-01T05:38:55;25.33;;;5.57;;
39728;SDS011;25402;42.004;23.088;2022-07-01T05:41:21;34.75;;;5.47;;
39728;SDS011;25402;42.004;23.088;2022-07-01T05:43:48;14.27;;;5.05;;
39728;SDS011;25402;42.004;23.088;2022-07-01T05:46:14;11.93;;;5.15;;
39728;SDS011;25402;42.004;23.088;2022-07-01T05:48:41;14.80;;;5.60;;
39728;SDS011;25402;42.004;23.088;2022-07-01T05:51:07;11.07;;;4.78;;
39728;SDS011;25402;42.004;23.088;2022-07-01T05:53:33;15.35;;;4.93;;
39728;SDS011;25402;42.004;23.088;2022-07-01T05:56:00;10.77;;;4.40;;
39728;SDS011;25402;42.004;23.088;2022-07-01T05:58:29;16.75;;;4.63;;
39728;SDS011;25402;42.004;23.088;2022-07-01T06:00:55;14.38;;;5.18;;
39728;SDS011;25402;42.004;23.088;2022-07-01T06:03:21;11.35;;;4.95;;
39728;SDS011;25402;42.004;23.088;2022-07-01T06:05:48;8.82;;;4.53;;
39728;SDS011;25402;42.004;23.088;2022-07-01T06:08:14;10.15;;;4.57;;
39728;SDS011;25402;42.004;23.088;2022-07-01T06:10:41;9.95;;;4.55;;
39728;SDS011;25402;42.004;23.088;2022-07-01T06:13:08;13.27;;;5.45;;
39728;SDS011;25402;42.004;23.088;2022-07-01T06:15:34;22.63;;;5.15;;
39728;SDS011;25402;42.004;23.088;2022-07-01T06:18:00;37.42;;;7.18;;
39728;SDS011;25402;42.004;23.088;2022-07-01T06:20:27;12.95;;;5.03;;
39728;SDS011;25402;42.004;23.088;2022-07-01T06:22:54;19.55;;;5.70;;
39728;SDS011;25402;42.004;23.088;2022-07-01T06:25:20;9.82;;;4.45;;
39728;SDS011;25402;42.004;23.088;2022-07-01T06:27:47;6.05;;;4.53;;
39728;SDS011;25402;42.004;23.088;2022-07-01T06:30:17;9.80;;;5.00;;
39728;SDS011;25402;42.004;23.088;2022-07-01T06:32:43;13.95;;;4.78;;
39728;SDS011;25402;42.004;23.088;2022-07-01T06:35:10;16.45;;;4.95;;
39728;SDS011;25402;42.004;23.088;2022-07-01T06:37:36;12.93;;;4.68;;
39728;SDS011;25402;42.004;23.088;2022-07-01T06:40:04;8.30;;;5.03;;
39728;SDS011;25402;42.004;23.088;2022-07-01T06:42:34;93.35;;;9.02;;
39728;SDS011;25402;42.004;23.088;2022-07-01T06:45:00;44.22;;;7.32;;
39728;SDS011;25402;42.004;23.088;2022-07-01T06:47:28;35.28;;;6.97;;
39728;SDS011;25402;42.004;23.088;2022-07-01T06:49:55;15.35;;;5.00;;
39728;SDS011;25402;42.004;23.088;2022-07-01T06:52:22;8.07;;;4.28;;
39728;SDS011;25402;42.004;23.088;2022-07-01T06:54:48;46.55;;;6.45;;
39728;SDS011;25402;42.004;23.088;2022-07-01T06:57:15;24.80;;;5.22;;
39728;SDS011;25402;42.004;23.088;2022-07-01T06:59:41;111.35;;;10.00;;
39728;SDS011;25402;42.004;23.088;2022-07-01T07:02:08;16.83;;;4.95;;
39728;SDS011;25402;42.004;23.088;2022-07-01T07:04:35;11.77;;;4.60;;
39728;SDS011;25402;42.004;23.088;2022-07-01T07:07:01;11.10;;;5.05;;
39728;SDS011;25402;42.004;23.088;2022-07-01T07:09:28;11.18;;;4.45;;
39728;SDS011;25402;42.004;23.088;2022-07-01T07:11:55;13.05;;;6.60;;
39728;SDS011;25402;42.004;23.088;2022-07-01T07:14:21;20.60;;;5.88;;
39728;SDS011;25402;42.004;23.088;2022-07-01T07:16:47;8.20;;;4.60;;
39728;SDS011;25402;42.004;23.088;2022-07-01T07:19:16;14.68;;;4.78;;
39728;SDS011;25402;42.004;23.088;2022-07-01T07:21:43;10.35;;;4.63;;
39728;SDS011;25402;42.004;23.088;2022-07-01T07:24:10;7.70;;;4.75;;
39728;SDS011;25402;42.004;23.088;2022-07-01T07:26:37;11.18;;;4.43;;
39728;SDS011;25402;42.004;23.088;2022-07-01T07:29:11;16.58;;;4.78;;
39728;SDS011;25402;42.004;23.088;2022-07-01T07:31:38;11.63;;;4.93;;
39728;SDS011;25402;42.004;23.088;2022-07-01T07:34:04;9.77;;;4.45;;
39728;SDS011;25402;42.004;23.088;2022-07-01T07:36:31;7.28;;;4.80;;
39728;SDS011;25402;42.004;23.088;2022-07-01T07:38:58;8.32;;;4.20;;
39728;SDS011;25402;42.004;23.088;2022-07-01T07:41:24;8.52;;;4.40;;
39728;SDS011;25402;42.004;23.088;2022-07-01T07:43:51;19.20;;;5.47;;
39728;SDS011;25402;42.004;23.088;2022-07-01T07:46:17;16.48;;;5.22;;
39728;SDS011;25402;42.004;23.088;2022-07-01T07:48:44;16.95;;;4.90;;
39728;SDS011;25402;42.004;23.088;2022-07-01T07:51:10;19.58;;;5.10;;
39728;SDS011;25402;42.004;23.088;2022-07-01T07:53:42;15.13;;;4.22;;
39728;SDS011;25402;42.004;23.088;2022-07-01T07:56:09;9.95;;;4.60;;
39728;SDS011;25402;42.004;23.088;2022-07-01T07:58:35;12.35;;;4.55;;
39728;SDS011;25402;42.004;23.088;2022-07-01T08:01:02;8.32;;;4.10;;
39728;SDS011;25402;42.004;23.088;2022-07-01T08:03:28;10.90;;;5.10;;
39728;SDS011;25402;42.004;23.088;2022-07-01T08:05:55;11.48;;;4.22;;
39728;SDS011;25402;42.004;23.088;2022-07-01T08:08:21;15.18;;;3.92;;
39728;SDS011;25402;42.004;23.088;2022-07-01T08:10:47;12.25;;;3.88;;
39728;SDS011;25402;42.004;23.088;2022-07-01T08:13:15;18.58;;;5.13;;
39728;SDS011;25402;42.004;23.088;2022-07-01T08:15:41;9.32;;;3.97;;
39728;SDS011;25402;42.004;23.088;2022-07-01T08:18:08;9.90;;;4.60;;
39728;SDS011;25402;42.004;23.088;2022-07-01T08:20:34;24.95;;;5.18;;
39728;SDS011;25402;42.004;23.088;2022-07-01T08:23:01;8.60;;;4.55;;
39728;SDS011;25402;42.004;23.088;2022-07-01T08:25:27;10.57;;;4.90;;
39728;SDS011;25402;42.004;23.088;2022-07-01T08:27:54;14.73;;;4.32;;
39728;SDS011;25402;42.004;23.088;2022-07-01T08:30:21;10.10;;;4.28;;
39728;SDS011;25402;42.004;23.088;2022-07-01T08:32:48;11.85;;;3.90;;
39728;SDS011;25402;42.004;23.088;2022-07-01T08:35:14;13.35;;;4.75;;
39728;SDS011;25402;42.004;23.088;2022-07-01T08:37:40;9.38;;;4.22;;
39728;SDS011;25402;42.004;23.088;2022-07-01T08:40:07;11.02;;;4.53;;
39728;SDS011;25402;42.004;23.088;2022-07-01T08:42:34;14.15;;;4.80;;
39728;SDS011;25402;42.004;23.088;2022-07-01T08:45:01;13.57;;;4.30;;
39728;SDS011;25402;42.004;23.088;2022-07-01T08:47:28;6.63;;;4.22;;
39728;SDS011;25402;42.004;23.088;2022-07-01T08:49:54;9.10;;;4.53;;
39728;SDS011;25402;42.004;23.088;2022-07-01T08:52:21;8.27;;;4.72;;
39728;SDS011;25402;42.004;23.088;2022-07-01T08:54:47;14.60;;;4.28;;
39728;SDS011;25402;42.004;23.088;2022-07-01T08:57:20;12.82;;;4.35;;
39728;SDS011;25402;42.004;23.088;2022-07-01T08:59:59;16.83;;;4.93;;
39728;SDS011;25402;42.004;23.088;2022-07-01T09:02:29;19.33;;;5.50;;
39728;SDS011;25402;42.004;23.088;2022-07-01T09:05:15;6.40;;;4.25;;
39728;SDS011;25402;42.004;23.088;2022-07-01T09:07:42;13.18;;;4.50;;
39728;SDS011;25402;42.004;23.088;2022-07-01T09:10:11;8.27;;;4.55;;
39728;SDS011;25402;42.004;23.088;2022-07-01T09:12:39;51.80;;;8.00;;
39728;SDS011;25402;42.004;23.088;2022-07-01T09:15:17;18.40;;;9.13;;
39728;SDS011;25402;42.004;23.088;2022-07-01T09:17:46;12.32;;;7.43;;
39728;SDS011;25402;42.004;23.088;2022-07-01T09:20:22;17.50;;;9.00;;
39728;SDS011;25402;42.004;23.088;2022-07-01T09:22:56;16.33;;;9.63;;
39728;SDS011;25402;42.004;23.088;2022-07-01T09:25:26;19.10;;;7.95;;
39728;SDS011;25402;42.004;23.088;2022-07-01T09:28:02;20.83;;;6.25;;
39728;SDS011;25402;42.004;23.088;2022-07-01T09:30:29;13.68;;;4.07;;
39728;SDS011;25402;42.004;23.088;2022-07-01T09:33:08;12.70;;;5.00;;
39728;SDS011;25402;42.004;23.088;2022-07-01T09:35:36;9.57;;;6.07;;
39728;SDS011;25402;42.004;23.088;2022-07-01T09:38:03;18.02;;;5.40;;
39728;SDS011;25402;42.004;23.088;2022-07-01T09:40:48;13.52;;;3.75;;
39728;SDS011;25402;42.004;23.088;2022-07-01T09:43:17;10.23;;;4.35;;
39728;SDS011;25402;42.004;23.088;2022-07-01T09:48:43;24.30;;;3.85;;
39728;SDS011;25402;42.004;23.088;2022-07-01T09:51:11;7.93;;;3.60;;
39728;SDS011;25402;42.004;23.088;2022-07-01T09:53:38;8.57;;;3.65;;
39728;SDS011;25402;42.004;23.088;2022-07-01T09:56:05;8.05;;;3.38;;
39728;SDS011;25402;42.004;23.088;2022-07-01T09:58:31;29.85;;;5.63;;
39728;SDS011;25402;42.004;23.088;2022-07-01T10:00:58;12.70;;;4.05;;
39728;SDS011;25402;42.004;23.088;2022-07-01T10:03:25;9.90;;;3.60;;
39728;SDS011;25402;42.004;23.088;2022-07-01T10:05:54;13.20;;;3.70;;
39728;SDS011;25402;42.004;23.088;2022-07-01T10:08:28;6.00;;;3.33;;
39728;SDS011;25402;42.004;23.088;2022-07-01T10:11:15;26.58;;;4.50;;
39728;SDS011;25402;42.004;23.088;2022-07-01T10:14:02;9.68;;;3.63;;
39728;SDS011;25402;42.004;23.088;2022-07-01T10:16:30;10.30;;;4.00;;
39728;SDS011;25402;42.004;23.088;2022-07-01T10:18:58;19.00;;;4.15;;
39728;SDS011;25402;42.004;23.088;2022-07-01T10:21:26;10.25;;;3.80;;
39728;SDS011;25402;42.004;23.088;2022-07-01T10:26:40;4.97;;;3.53;;
39728;SDS011;25402;42.004;23.088;2022-07-01T10:31:59;9.65;;;3.53;;
39728;SDS011;25402;42.004;23.088;2022-07-01T10:34:33;5.50;;;3.15;;
39728;SDS011;25402;42.004;23.088;2022-07-01T10:37:01;7.55;;;3.40;;
39728;SDS011;25402;42.004;23.088;2022-07-01T10:39:29;6.47;;;3.58;;
39728;SDS011;25402;42.004;23.088;2022-07-01T10:41:56;9.13;;;3.63;;
39728;SDS011;25402;42.004;23.088;2022-07-01T10:44:27;8.57;;;3.35;;
39728;SDS011;25402;42.004;23.088;2022-07-01T10:46:54;10.30;;;3.20;;
39728;SDS011;25402;42.004;23.088;2022-07-01T10:52:19;10.80;;;3.63;;
39728;SDS011;25402;42.004;23.088;2022-07-01T10:54:46;5.85;;;3.60;;
39728;SDS011;25402;42.004;23.088;2022-07-01T10:57:18;6.72;;;2.67;;
39728;SDS011;25402;42.004;23.088;2022-07-01T10:59:48;5.38;;;3.00;;
39728;SDS011;25402;42.004;23.088;2022-07-01T11:02:17;7.85;;;2.70;;
39728;SDS011;25402;42.004;23.088;2022-07-01T11:04:45;7.93;;;3.30;;
39728;SDS011;25402;42.004;23.088;2022-07-01T11:07:12;11.18;;;3.50;;
39728;SDS011;25402;42.004;23.088;2022-07-01T11:09:39;14.23;;;3.50;;
39728;SDS011;25402;42.004;23.088;2022-07-01T11:12:06;7.75;;;3.05;;
39728;SDS011;25402;42.004;23.088;2022-07-01T11:14:34;16.45;;;4.22;;
39728;SDS011;25402;42.004;23.088;2022-07-01T11:17:00;11.05;;;3.17;;
39728;SDS011;25402;42.004;23.088;2022-07-01T11:19:28;9.25;;;3.20;;
39728;SDS011;25402;42.004;23.088;2022-07-01T11:21:54;4.80;;;3.05;;
39728;SDS011;25402;42.004;23.088;2022-07-01T11:24:23;13.27;;;3.13;;
39728;SDS011;25402;42.004;23.088;2022-07-01T11:26:50;10.80;;;3.70;;
39728;SDS011;25402;42.004;23.088;2022-07-01T11:29:26;17.73;;;3.58;;
39728;SDS011;25402;42.004;23.088;2022-07-01T11:31:54;8.07;;;3.40;;
39728;SDS011;25402;42.004;23.088;2022-07-01T11:34:20;7.18;;;3.17;;
39728;SDS011;25402;42.004;23.088;2022-07-01T11:36:47;3.70;;;2.70;;
39728;SDS011;25402;42.004;23.088;2022-07-01T11:39:32;10.60;;;3.10;;
39728;SDS011;25402;42.004;23.088;2022-07-01T11:42:02;9.48;;;3.10;;
39728;SDS011;25402;42.004;23.088;2022-07-01T11:44:32;12.73;;;3.38;;
39728;SDS011;25402;42.004;23.088;2022-07-01T11:47:00;9.30;;;3.15;;
39728;SDS011;25402;42.004;23.088;2022-07-01T11:49:26;48.22;;;5.57;;
39728;SDS011;25402;42.004;23.088;2022-07-01T11:51:54;7.03;;;2.80;;
39728;SDS011;25402;42.004;23.088;2022-07-01T11:54:22;12.30;;;2.97;;
39728;SDS011;25402;42.004;23.088;2022-07-01T11:56:48;8.45;;;2.65;;
39728;SDS011;25402;42.004;23.088;2022-07-01T11:59:16;7.63;;;2.80;;
39728;SDS011;25402;42.004;23.088;2022-07-01T12:01:49;12.23;;;6.28;;
39728;SDS011;25402;42.004;23.088;2022-07-01T12:04:17;6.68;;;3.25;;
39728;SDS011;25402;42.004;23.088;2022-07-01T12:06:43;9.30;;;5.45;;
39728;SDS011;25402;42.004;23.088;2022-07-01T12:09:11;10.07;;;7.07;;
39728;SDS011;25402;42.004;23.088;2022-07-01T12:11:39;10.18;;;5.78;;
39728;SDS011;25402;42.004;23.088;2022-07-01T12:14:11;7.93;;;5.88;;
39728;SDS011;25402;42.004;23.088;2022-07-01T12:16:39;10.27;;;5.10;;
39728;SDS011;25402;42.004;23.088;2022-07-01T12:19:06;6.80;;;2.88;;
39728;SDS011;25402;42.004;23.088;2022-07-01T12:21:46;7.65;;;2.92;;
39728;SDS011;25402;42.004;23.088;2022-07-01T12:24:15;4.13;;;2.75;;
39728;SDS011;25402;42.004;23.088;2022-07-01T12:26:50;7.03;;;2.78;;
39728;SDS011;25402;42.004;23.088;2022-07-01T12:29:20;6.63;;;2.80;;
39728;SDS011;25402;42.004;23.088;2022-07-01T12:31:55;4.55;;;2.83;;
39728;SDS011;25402;42.004;23.088;2022-07-01T12:34:35;5.68;;;2.90;;
39728;SDS011;25402;42.004;23.088;2022-07-01T12:37:03;17.00;;;2.92;;
39728;SDS011;25402;42.004;23.088;2022-07-01T12:39:41;12.75;;;3.40;;
39728;SDS011;25402;42.004;23.088;2022-07-01T12:42:08;15.65;;;3.90;;
39728;SDS011;25402;42.004;23.088;2022-07-01T12:44:46;16.83;;;4.55;;
39728;SDS011;25402;42.004;23.088;2022-07-01T12:47:17;12.65;;;4.45;;
39728;SDS011;25402;42.004;23.088;2022-07-01T12:49:44;10.82;;;4.07;;
39728;SDS011;25402;42.004;23.088;2022-07-01T12:52:22;13.43;;;3.95;;
39728;SDS011;25402;42.004;23.088;2022-07-01T12:54:49;23.27;;;4.70;;
39728;SDS011;25402;42.004;23.088;2022-07-01T12:57:15;9.13;;;4.40;;
39728;SDS011;25402;42.004;23.088;2022-07-01T12:59:42;22.23;;;5.03;;
39728;SDS011;25402;42.004;23.088;2022-07-01T13:02:08;19.55;;;5.03;;
39728;SDS011;25402;42.004;23.088;2022-07-01T13:04:35;11.82;;;4.82;;
39728;SDS011;25402;42.004;23.088;2022-07-01T13:07:02;9.80;;;4.28;;
39728;SDS011;25402;42.004;23.088;2022-07-01T13:09:29;14.05;;;5.40;;
39728;SDS011;25402;42.004;23.088;2022-07-01T13:11:55;8.60;;;5.00;;
39728;SDS011;25402;42.004;23.088;2022-07-01T13:14:22;12.95;;;5.38;;
39728;SDS011;25402;42.004;23.088;2022-07-01T13:16:49;13.50;;;5.40;;
39728;SDS011;25402;42.004;23.088;2022-07-01T13:19:15;16.50;;;6.00;;
39728;SDS011;25402;42.004;23.088;2022-07-01T13:21:42;14.88;;;6.88;;
39728;SDS011;25402;42.004;23.088;2022-07-01T13:24:09;9.77;;;5.47;;
39728;SDS011;25402;42.004;23.088;2022-07-01T13:26:36;18.33;;;6.97;;
39728;SDS011;25402;42.004;23.088;2022-07-01T13:29:04;16.35;;;6.40;;
39728;SDS011;25402;42.004;23.088;2022-07-01T13:31:31;16.40;;;5.90;;
39728;SDS011;25402;42.004;23.088;2022-07-01T13:33:58;14.98;;;6.75;;
39728;SDS011;25402;42.004;23.088;2022-07-01T13:36:24;13.60;;;6.70;;
39728;SDS011;25402;42.004;23.088;2022-07-01T13:38:51;14.70;;;6.90;;
39728;SDS011;25402;42.004;23.088;2022-07-01T13:41:18;11.57;;;7.32;;
39728;SDS011;25402;42.004;23.088;2022-07-01T13:43:46;12.20;;;6.75;;
39728;SDS011;25402;42.004;23.088;2022-07-01T13:46:12;11.60;;;6.88;;
39728;SDS011;25402;42.004;23.088;2022-07-01T13:48:39;8.75;;;6.25;;
39728;SDS011;25402;42.004;23.088;2022-07-01T13:51:06;14.80;;;6.97;;
39728;SDS011;25402;42.004;23.088;2022-07-01T13:53:33;10.38;;;7.05;;
39728;SDS011;25402;42.004;23.088;2022-07-01T13:56:01;11.70;;;7.00;;
39728;SDS011;25402;42.004;23.088;2022-07-01T13:58:27;11.07;;;6.65;;
39728;SDS011;25402;42.004;23.088;2022-07-01T14:00:55;14.30;;;7.85;;
39728;SDS011;25402;42.004;23.088;2022-07-01T14:03:21;12.30;;;7.43;;
39728;SDS011;25402;42.004;23.088;2022-07-01T14:05:48;7.75;;;6.43;;
39728;SDS011;25402;42.004;23.088;2022-07-01T14:08:14;12.30;;;6.72;;
39728;SDS011;25402;42.004;23.088;2022-07-01T14:10:41;11.52;;;6.38;;
39728;SDS011;25402;42.004;23.088;2022-07-01T14:13:09;9.45;;;6.80;;
39728;SDS011;25402;42.004;23.088;2022-07-01T14:15:35;10.93;;;6.03;;
39728;SDS011;25402;42.004;23.088;2022-07-01T14:18:02;8.00;;;6.13;;
39728;SDS011;25402;42.004;23.088;2022-07-01T14:20:29;10.77;;;6.70;;
39728;SDS011;25402;42.004;23.088;2022-07-01T14:22:56;9.70;;;5.90;;
39728;SDS011;25402;42.004;23.088;2022-07-01T14:25:22;8.13;;;5.30;;
39728;SDS011;25402;42.004;23.088;2022-07-01T14:27:49;15.05;;;6.00;;
39728;SDS011;25402;42.004;23.088;2022-07-01T14:30:16;7.47;;;5.82;;
39728;SDS011;25402;42.004;23.088;2022-07-01T14:32:42;6.38;;;5.70;;
39728;SDS011;25402;42.004;23.088;2022-07-01T14:35:09;10.13;;;7.32;;
39728;SDS011;25402;42.004;23.088;2022-07-01T14:37:35;8.30;;;6.40;;
39728;SDS011;25402;42.004;23.088;2022-07-01T14:40:04;6.80;;;6.10;;